Terminal Aerodrome Forecast
Issued by NWS

Home | Current Version | Previous Version | Text Only | Print | Product List | Glossary On
Versions: 1 2 3 4 5 6 7 8 9 10 11 12 13 14 15 16 17
000
FTUS41 KGYX 251720
TAFAUG
TAF
KAUG 251720Z 2518/2618 VRB03KT P6SM SCT035
     FM260200 19004KT 5SM BR SKC
     FM260600 20003KT 1/2SM FG BKN002
     FM261300 22004KT P6SM SCT035=

USA.gov is the U.S. government's official web portal to all federal, state and local government web resources and services.